createdAt,value
2018-02-22T00:00:34.107Z,96981.06
2018-02-22T00:03:02.432Z,96983.44
2018-02-22T00:05:30.753Z,96980.09
2018-02-22T00:07:59.409Z,96980.38
2018-02-22T00:10:27.768Z,96976.22
2018-02-22T00:12:56.143Z,96977.46
2018-02-22T00:15:24.490Z,96981.65
2018-02-22T00:17:52.786Z,96974.11
2018-02-22T00:20:21.231Z,96977.81
2018-02-22T00:22:49.664Z,96974.46
2018-02-22T00:25:18.092Z,96975.62
2018-02-22T00:27:47.244Z,96983.88
2018-02-22T00:30:15.628Z,96974.30
2018-02-22T00:32:43.941Z,96977.07
2018-02-22T00:35:13.864Z,96974.87
2018-02-22T00:37:42.209Z,96974.42
2018-02-22T00:40:10.585Z,96977.28
2018-02-22T00:42:38.966Z,96979.77
2018-02-22T00:45:09.162Z,96976.77
2018-02-22T00:47:39.218Z,96975.03
2018-02-22T00:50:07.507Z,96971.27
2018-02-22T00:52:35.880Z,96967.17
2018-02-22T00:55:04.210Z,96969.66
2018-02-22T00:57:32.539Z,96967.17
2018-02-22T01:00:00.955Z,96968.30
2018-02-22T01:02:29.293Z,96965.44
2018-02-22T01:05:00.234Z,96957.63
2018-02-22T01:07:28.612Z,96958.94
2018-02-22T01:09:56.925Z,96959.80
2018-02-22T01:12:25.320Z,96954.48
2018-02-22T01:14:53.726Z,96954.48
2018-02-22T01:17:22.328Z,96956.09
2018-02-22T01:19:50.743Z,96960.98
2018-02-22T01:22:22.682Z,96955.50
2018-02-22T01:24:51.090Z,96945.62
2018-02-22T01:27:19.378Z,96941.19
2018-02-22T01:29:47.952Z,96940.36
2018-02-22T01:32:16.331Z,96937.90
2018-02-22T01:34:46.500Z,96938.27
2018-02-22T01:37:16.462Z,96936.22
2018-02-22T01:39:44.886Z,96935.91
2018-02-22T01:42:13.235Z,96939.30
2018-02-22T01:44:41.552Z,96943.14
2018-02-22T01:47:09.917Z,96939.06
2018-02-22T01:49:38.245Z,96937.45
2018-02-22T01:52:06.654Z,96934.53
2018-02-22T01:54:34.942Z,96938.28
2018-02-22T01:57:03.588Z,96932.05
2018-02-22T01:59:31.953Z,96934.02
2018-02-22T02:02:00.990Z,96934.02
2018-02-22T02:04:30.996Z,96934.25
2018-02-22T02:06:59.487Z,96927.88
2018-02-22T02:09:27.796Z,96931.52
2018-02-22T02:11:56.110Z,96926.55
2018-02-22T02:14:24.495Z,96927.66
2018-02-22T02:16:52.824Z,96928.44
2018-02-22T02:19:21.177Z,96932.89
2018-02-22T02:21:49.496Z,96931.65
2018-02-22T02:24:17.831Z,96929.05
2018-02-22T02:26:46.162Z,96928.59
2018-02-22T02:29:14.594Z,96921.92
2018-02-22T02:31:43.702Z,96919.32
2018-02-22T02:34:13.082Z,96917.99
2018-02-22T02:36:43.114Z,96919.64
2018-02-22T02:39:11.461Z,96915.48
2018-02-22T02:41:41.775Z,96916.95
2018-02-22T02:44:12.497Z,96915.50
2018-02-22T02:46:40.852Z,96903.62
2018-02-22T02:49:09.220Z,96911.72
2018-02-22T02:51:37.523Z,96905.22
2018-02-22T02:54:05.873Z,96898.71
2018-02-22T02:56:34.159Z,96904.73
2018-02-22T02:59:02.480Z,96898.61
2018-02-22T03:01:30.781Z,96902.53
2018-02-22T03:03:59.142Z,96895.91
2018-02-22T03:06:27.452Z,96894.34
2018-02-22T03:08:55.855Z,96894.37
2018-02-22T03:11:24.182Z,96885.78
2018-02-22T03:13:54.973Z,96888.34
2018-02-22T03:16:25.751Z,96891.78
2018-02-22T03:18:54.131Z,96895.45
2018-02-22T03:21:22.434Z,96887.10
2018-02-22T03:23:50.822Z,96883.37
2018-02-22T03:26:19.142Z,96881.78
2018-02-22T03:28:47.531Z,96880.54
2018-02-22T03:31:15.822Z,96883.37
2018-02-22T03:33:44.140Z,96881.78
2018-02-22T03:36:12.465Z,96878.92
2018-02-22T03:38:40.851Z,96878.11
2018-02-22T03:41:09.267Z,96873.97
2018-02-22T03:43:37.585Z,96876.35
2018-02-22T03:46:06.060Z,96874.24
2018-02-22T03:48:34.342Z,96870.08
2018-02-22T03:51:02.775Z,96871.33
2018-02-22T03:53:31.083Z,96874.19
2018-02-22T03:55:59.408Z,96870.38
2018-02-22T03:58:27.734Z,96866.63
2018-02-22T04:00:57.978Z,96865.33
2018-02-22T04:03:29.701Z,96865.19
2018-02-22T04:05:58.037Z,96866.44
2018-02-22T04:08:26.326Z,96865.19
2018-02-22T04:10:54.651Z,96866.87
2018-02-22T04:13:24.693Z,96860.59
2018-02-22T04:15:55.199Z,96864.33
2018-02-22T04:18:25.721Z,96859.77
2018-02-22T04:20:54.100Z,96863.44
2018-02-22T04:23:22.469Z,96867.24
2018-02-22T04:25:52.527Z,96869.35
2018-02-22T04:28:20.996Z,96867.30
2018-02-22T04:30:52.036Z,96870.59
2018-02-22T04:33:20.525Z,96873.87
2018-02-22T04:35:48.862Z,96871.03
2018-02-22T04:38:19.459Z,96870.16
2018-02-22T04:40:48.009Z,96869.41
2018-02-22T04:43:18.577Z,96866.00
2018-02-22T04:45:49.353Z,96864.00
2018-02-22T04:48:18.098Z,96862.90
2018-02-22T04:50:46.583Z,96871.70
2018-02-22T04:53:15.031Z,96868.19
2018-02-22T04:55:43.539Z,96875.33
2018-02-22T04:58:11.897Z,96880.23
2018-02-22T05:00:40.166Z,96873.16
2018-02-22T05:03:08.644Z,96865.33
2018-02-22T05:05:36.958Z,96876.16
2018-02-22T05:08:07.011Z,96870.75
2018-02-22T05:10:35.634Z,96865.27
2018-02-22T05:13:04.010Z,96870.59
2018-02-22T05:15:32.480Z,96868.55
2018-02-22T05:18:01.724Z,96877.62
2018-02-22T05:20:30.078Z,96870.16
2018-02-22T05:22:59.488Z,96865.11
2018-02-22T05:25:27.909Z,96860.92
2018-02-22T05:27:58.314Z,96862.47
2018-02-22T05:30:26.714Z,96869.43
2018-02-22T05:32:56.692Z,96865.27
2018-02-22T05:35:26.988Z,96873.94
2018-02-22T05:37:56.296Z,96869.78
2018-02-22T05:40:24.605Z,96872.62
2018-02-22T05:42:52.910Z,96864.95
2018-02-22T05:45:22.280Z,96869.48
2018-02-22T05:47:50.678Z,96867.67
2018-02-22T05:50:20.794Z,96868.37
2018-02-22T05:52:49.175Z,96870.72
2018-02-22T05:55:17.527Z,96868.08
2018-02-22T05:57:45.807Z,96863.42
2018-02-22T06:00:14.215Z,96864.66
2018-02-22T06:02:43.240Z,96864.78
2018-02-22T06:05:13.372Z,96868.74
2018-02-22T06:07:42.497Z,96872.03
2018-02-22T06:10:13.577Z,96872.82
2018-02-22T06:12:41.890Z,96871.00
2018-02-22T06:15:10.362Z,96872.45
2018-02-22T06:17:38.950Z,96880.98
2018-02-22T06:20:07.262Z,96866.75
2018-02-22T06:22:35.604Z,96876.15
2018-02-22T06:25:03.904Z,96868.27
2018-02-22T06:27:32.433Z,96874.09
2018-02-22T06:30:00.737Z,96876.15
2018-02-22T06:32:29.752Z,96880.83
2018-02-22T06:34:58.144Z,96880.95
2018-02-22T06:37:26.626Z,96879.98
2018-02-22T06:39:54.993Z,96877.38
2018-02-22T06:42:23.282Z,96878.77
2018-02-22T06:44:54.764Z,96886.13
2018-02-22T06:47:27.744Z,96884.00
2018-02-22T06:49:56.193Z,96877.70
2018-02-22T06:52:24.535Z,96878.95
2018-02-22T06:54:52.819Z,96889.28
2018-02-22T06:57:21.166Z,96884.72
2018-02-22T06:59:49.533Z,96887.72
2018-02-22T07:02:17.920Z,96887.08
2018-02-22T07:04:46.355Z,96890.00
2018-02-22T07:07:14.708Z,96887.97
2018-02-22T07:09:43.052Z,96881.19
2018-02-22T07:12:11.680Z,96878.87
2018-02-22T07:14:39.976Z,96884.33
2018-02-22T07:17:09.960Z,96878.36
2018-02-22T07:19:38.324Z,96876.48
2018-02-22T07:22:06.774Z,96883.91
2018-02-22T07:24:39.035Z,96883.42
2018-02-22T07:27:08.608Z,96886.70
2018-02-22T07:29:38.022Z,96881.02
2018-02-22T07:32:08.080Z,96879.93
2018-02-22T07:34:36.528Z,96881.98
2018-02-22T07:37:04.982Z,96877.75
2018-02-22T07:39:33.296Z,96880.80
2018-02-22T07:42:01.637Z,96884.31
2018-02-22T07:44:30.084Z,96880.75
2018-02-22T07:46:58.494Z,96883.37
2018-02-22T07:49:28.826Z,96882.59
2018-02-22T07:52:00.439Z,96876.89
2018-02-22T07:54:28.757Z,96877.11
2018-02-22T07:56:57.230Z,96869.41
2018-02-22T07:59:25.678Z,96869.73
2018-02-22T08:01:57.814Z,96875.51
2018-02-22T08:04:26.313Z,96872.13
2018-02-22T08:06:54.706Z,96874.27
2018-02-22T08:09:23.090Z,96872.05
2018-02-22T08:11:51.435Z,96876.87
2018-02-22T08:14:19.922Z,96874.32
2018-02-22T08:16:48.250Z,96866.05
2018-02-22T08:19:16.557Z,96866.73
2018-02-22T08:21:44.909Z,96871.34
2018-02-22T08:24:13.207Z,96873.43
2018-02-22T08:26:41.601Z,96865.27
2018-02-22T08:29:09.909Z,96869.20
2018-02-22T08:31:38.260Z,96862.49
2018-02-22T08:34:08.336Z,96860.05
2018-02-22T08:36:36.711Z,96859.67
2018-02-22T08:39:05.038Z,96860.95
2018-02-22T08:41:33.338Z,96862.92
2018-02-22T08:44:02.397Z,96860.19
2018-02-22T08:46:30.741Z,96847.83
2018-02-22T08:48:59.071Z,96843.01
2018-02-22T08:51:28.657Z,96845.10
2018-02-22T08:53:57.816Z,96838.17
2018-02-22T08:56:27.152Z,96834.57
2018-02-22T08:58:55.456Z,96837.64
2018-02-22T09:01:25.020Z,96839.78
2018-02-22T09:03:53.488Z,96842.33
2018-02-22T09:06:21.898Z,96839.02
2018-02-22T09:08:51.072Z,96839.86
2018-02-22T09:11:19.394Z,96840.87
2018-02-22T09:13:49.399Z,96842.39
2018-02-22T09:16:17.824Z,96839.73
2018-02-22T09:18:46.171Z,96837.09
2018-02-22T09:21:14.495Z,96837.87
2018-02-22T09:23:44.695Z,96841.22
2018-02-22T09:26:14.670Z,96840.43
2018-02-22T09:28:46.025Z,96840.09
2018-02-22T09:31:17.096Z,96837.61
2018-02-22T09:33:45.647Z,96840.58
2018-02-22T09:36:14.124Z,96840.20
2018-02-22T09:38:42.605Z,96834.42
2018-02-22T09:41:10.985Z,96832.71
2018-02-22T09:46:09.672Z,96843.34
2018-02-22T09:48:37.995Z,96841.44
2018-02-22T09:51:06.380Z,96837.70
2018-02-22T09:53:36.297Z,96842.75
2018-02-22T09:56:04.731Z,96837.16
2018-02-22T09:58:33.041Z,96842.89
2018-02-22T10:01:01.385Z,96835.85
2018-02-22T10:03:30.479Z,96845.27
2018-02-22T10:05:59.609Z,96847.27
2018-02-22T10:08:30.514Z,96853.52
2018-02-22T10:10:58.968Z,96860.51
2018-02-22T10:13:27.307Z,96854.75
2018-02-22T10:15:55.667Z,96862.85
2018-02-22T10:18:23.993Z,96847.70
2018-02-22T10:20:53.075Z,96851.02
2018-02-22T10:23:21.431Z,96850.25
2018-02-22T10:25:52.694Z,96850.89
2018-02-22T10:28:20.987Z,96852.53
2018-02-22T10:30:49.334Z,96853.81
2018-02-22T10:33:17.643Z,96850.20
2018-02-22T10:35:46.077Z,96849.53
2018-02-22T10:38:14.450Z,96849.53
2018-02-22T10:40:42.882Z,96852.27
2018-02-22T10:43:11.199Z,96846.14
2018-02-22T10:45:39.565Z,96850.33
2018-02-22T10:48:08.022Z,96839.59
2018-02-22T10:50:36.371Z,96843.53
2018-02-22T10:53:04.745Z,96832.01
2018-02-22T10:55:33.201Z,96843.92
2018-02-22T10:58:01.562Z,96838.00
2018-02-22T11:00:35.433Z,96840.42
2018-02-22T11:03:03.857Z,96839.99
2018-02-22T11:05:32.948Z,96843.15
2018-02-22T11:08:03.013Z,96833.87
2018-02-22T11:10:31.504Z,96845.07
2018-02-22T11:12:59.823Z,96845.52
2018-02-22T11:15:28.272Z,96840.28
2018-02-22T11:17:58.291Z,96847.81
2018-02-22T11:20:28.355Z,96839.39
2018-02-22T11:22:57.464Z,96845.24
2018-02-22T11:25:25.763Z,96838.84
2018-02-22T11:27:54.121Z,96834.25
2018-02-22T11:30:22.474Z,96830.41
2018-02-22T11:32:50.950Z,96833.44
2018-02-22T11:35:19.332Z,96825.17
2018-02-22T11:37:47.704Z,96825.26
2018-02-22T11:40:16.051Z,96827.09
2018-02-22T11:42:45.253Z,96825.72
2018-02-22T11:45:13.664Z,96827.59
2018-02-22T11:47:42.152Z,96826.53
2018-02-22T11:50:12.156Z,96820.70
2018-02-22T11:52:41.215Z,96820.88
2018-02-22T11:55:09.626Z,96818.28
2018-02-22T11:57:37.910Z,96809.38
2018-02-22T12:00:06.227Z,96813.08
2018-02-22T12:02:34.526Z,96804.98
2018-02-22T12:05:02.797Z,96803.55
2018-02-22T12:07:33.669Z,96809.09
2018-02-22T12:10:02.090Z,96808.53
2018-02-22T12:12:30.807Z,96811.80
2018-02-22T12:15:02.274Z,96808.06
2018-02-22T12:17:32.347Z,96806.98
2018-02-22T12:20:00.828Z,96806.50
2018-02-22T12:22:32.215Z,96802.03
2018-02-22T12:25:00.542Z,96803.72
2018-02-22T12:27:29.739Z,96802.79
2018-02-22T12:29:58.129Z,96800.28
2018-02-22T12:32:26.492Z,96799.96
2018-02-22T12:34:54.872Z,96795.62
2018-02-22T12:37:23.208Z,96801.42
2018-02-22T12:39:51.593Z,96801.19
2018-02-22T12:42:20.639Z,96786.66
2018-02-22T12:44:48.925Z,96786.77
2018-02-22T12:47:17.301Z,96786.55
2018-02-22T12:49:45.620Z,96790.68
2018-02-22T12:52:13.980Z,96781.78
2018-02-22T12:54:42.360Z,96785.19
2018-02-22T12:57:10.774Z,96773.45
2018-02-22T12:59:41.777Z,96775.42
2018-02-22T13:02:10.130Z,96776.07
2018-02-22T13:04:40.116Z,96769.38
2018-02-22T13:07:11.494Z,96773.30
2018-02-22T13:09:39.992Z,96767.05
2018-02-22T13:12:08.424Z,96773.30
2018-02-22T13:14:38.354Z,96772.53
2018-02-22T13:17:06.852Z,96779.76
2018-02-22T13:19:35.205Z,96766.11
2018-02-22T13:22:03.641Z,96769.63
2018-02-22T13:24:32.059Z,96766.72
2018-02-22T13:27:02.202Z,96761.13
2018-02-22T13:29:35.879Z,96755.63
2018-02-22T13:32:04.273Z,96757.00
2018-02-22T13:34:35.482Z,96762.91
2018-02-22T13:37:15.378Z,96760.41
2018-02-22T13:39:43.868Z,96754.23
2018-02-22T13:42:12.224Z,96747.70
2018-02-22T13:44:52.502Z,96757.71
2018-02-22T13:47:21.622Z,96756.06
2018-02-22T13:50:03.940Z,96758.47
2018-02-22T13:52:32.287Z,96759.93
2018-02-22T13:55:05.265Z,96756.39
2018-02-22T13:57:33.804Z,96750.09
2018-02-22T14:00:03.013Z,96757.28
2018-02-22T14:02:31.361Z,96756.94
2018-02-22T14:04:59.738Z,96756.67
2018-02-22T14:07:28.055Z,96757.82
2018-02-22T14:09:56.524Z,96761.77
2018-02-22T14:12:24.836Z,96762.48
2018-02-22T14:14:53.180Z,96763.26
2018-02-22T14:17:23.261Z,96763.56
2018-02-22T14:19:51.678Z,96758.73
2018-02-22T14:22:20.024Z,96766.17
2018-02-22T14:24:49.107Z,96758.45
2018-02-22T14:27:17.482Z,96763.57
2018-02-22T14:29:45.768Z,96764.17
2018-02-22T14:32:14.103Z,96763.95
2018-02-22T14:34:44.978Z,96757.66
2018-02-22T14:37:14.178Z,96759.98
2018-02-22T14:39:42.558Z,96762.97
2018-02-22T14:42:10.881Z,96764.27
2018-02-22T14:44:39.244Z,96764.65
2018-02-22T14:47:07.528Z,96765.03
2018-02-22T14:49:35.868Z,96759.88
2018-02-22T14:52:06.811Z,96759.45
2018-02-22T14:54:35.224Z,96764.92
2018-02-22T14:57:05.410Z,96762.56
2018-02-22T14:59:33.923Z,96765.94
2018-02-22T15:02:02.310Z,96766.84
2018-02-22T15:04:30.755Z,96769.83
2018-02-22T15:06:59.085Z,96773.02
2018-02-22T15:09:29.253Z,96776.11
2018-02-22T15:12:00.246Z,96778.63
2018-02-22T15:14:30.619Z,96769.90
2018-02-22T15:17:01.523Z,96775.56
2018-02-22T15:19:29.987Z,96772.95
2018-02-22T15:22:01.715Z,96779.92
2018-02-22T15:24:30.225Z,96771.56
2018-02-22T15:26:58.637Z,96775.31
2018-02-22T15:29:26.997Z,96772.14
2018-02-22T15:32:00.222Z,96779.20
2018-02-22T15:34:30.491Z,96784.77
2018-02-22T15:37:01.539Z,96782.78
2018-02-22T15:39:30.339Z,96791.91
2018-02-22T15:41:59.791Z,96789.47
2018-02-22T15:44:28.150Z,96787.47
2018-02-22T15:46:57.407Z,96787.29
2018-02-22T15:49:25.869Z,96795.59
2018-02-22T15:51:56.861Z,96792.59
2018-02-22T15:54:27.912Z,96798.48
2018-02-22T15:56:58.133Z,96809.32
2018-02-22T15:59:26.521Z,96792.27
2018-02-22T16:01:57.339Z,96788.97
2018-02-22T16:04:26.589Z,96800.37
2018-02-22T16:06:55.125Z,96804.17
2018-02-22T16:09:26.087Z,96804.80
2018-02-22T16:11:54.525Z,96805.87
2018-02-22T16:14:22.939Z,96811.62
2018-02-22T16:16:52.486Z,96816.66
2018-02-22T16:19:20.801Z,96819.90
2018-02-22T16:21:49.176Z,96818.47
2018-02-22T16:24:19.265Z,96821.03
2018-02-22T16:26:47.695Z,96824.08
2018-02-22T16:29:18.806Z,96824.69
2018-02-22T16:31:47.191Z,96825.63
2018-02-22T16:34:16.509Z,96823.63
2018-02-22T16:36:44.961Z,96829.72
2018-02-22T16:39:14.342Z,96827.67
2018-02-22T16:41:42.768Z,96832.97
2018-02-22T16:44:11.142Z,96829.53
2018-02-22T16:46:39.540Z,96836.00
2018-02-22T16:49:07.991Z,96836.12
2018-02-22T16:51:38.224Z,96830.70
2018-02-22T16:54:08.935Z,96836.34
2018-02-22T16:56:37.265Z,96840.64
2018-02-22T16:59:05.833Z,96842.05
2018-02-22T17:01:34.166Z,96844.12
2018-02-22T17:04:02.517Z,96850.81
2018-02-22T17:06:30.864Z,96847.98
2018-02-22T17:08:59.376Z,96846.62
2018-02-22T17:11:27.766Z,96856.87
2018-02-22T17:13:56.192Z,96860.98
2018-02-22T17:16:24.585Z,96864.59
2018-02-22T17:18:52.866Z,96864.59
2018-02-22T17:21:21.213Z,96859.18
2018-02-22T17:23:49.606Z,96870.16
2018-02-22T17:26:23.496Z,96872.45
2018-02-22T17:28:57.341Z,96873.06
2018-02-22T17:31:31.550Z,96881.18
2018-02-22T17:33:59.934Z,96874.03
2018-02-22T17:36:28.297Z,96875.84
2018-02-22T17:39:02.253Z,96877.92
2018-02-22T17:41:41.594Z,96887.88
2018-02-22T17:44:09.996Z,96883.92
2018-02-22T17:46:38.516Z,96887.38
2018-02-22T17:49:07.001Z,96889.98
2018-02-22T17:51:35.362Z,96891.21
2018-02-22T17:54:05.347Z,96891.23
2018-02-22T17:56:36.464Z,96892.34
2018-02-22T17:59:05.561Z,96893.97
2018-02-22T18:01:33.874Z,96904.70
2018-02-22T18:04:04.083Z,96907.72
2018-02-22T18:06:32.467Z,96906.40
2018-02-22T18:09:00.865Z,96910.44
2018-02-22T18:11:29.270Z,96910.22
2018-02-22T18:13:57.630Z,96910.30
2018-02-22T18:16:25.971Z,96912.20
2018-02-22T18:18:54.288Z,96915.98
2018-02-22T18:21:24.390Z,96913.59
2018-02-22T18:23:54.115Z,96915.63
2018-02-22T18:26:22.538Z,96918.55
2018-02-22T18:28:50.950Z,96910.22
2018-02-22T18:31:19.657Z,96911.95
2018-02-22T18:33:50.149Z,96907.37
2018-02-22T18:36:19.228Z,96903.03
2018-02-22T18:38:53.105Z,96908.23
2018-02-22T18:41:23.679Z,96902.34
2018-02-22T18:46:56.983Z,96905.26
2018-02-22T18:49:26.377Z,96908.75
2018-02-22T18:51:54.780Z,96902.89
2018-02-22T18:54:25.774Z,96902.32
2018-02-22T18:56:56.198Z,96904.00
2018-02-22T18:59:25.323Z,96896.19
2018-02-22T19:01:53.647Z,96897.80
2018-02-22T19:04:22.093Z,96896.34
2018-02-22T19:06:50.620Z,96925.95
2018-02-22T19:09:19.158Z,96901.03
2018-02-22T19:11:50.679Z,96901.88
2018-02-22T19:14:19.212Z,96899.25
2018-02-22T19:16:47.596Z,96901.36
2018-02-22T19:19:17.770Z,96902.20
2018-02-22T19:24:42.487Z,96898.03
2018-02-22T19:27:13.004Z,96896.11
2018-02-22T19:29:43.580Z,96898.66
2018-02-22T19:32:11.927Z,96890.63
2018-02-22T19:34:42.008Z,96891.06
2018-02-22T19:40:13.538Z,96893.58
2018-02-22T19:42:42.157Z,96885.15
2018-02-22T19:45:10.540Z,96881.13
2018-02-22T19:47:39.084Z,96889.02
2018-02-22T19:50:07.451Z,96890.61
2018-02-22T19:52:36.063Z,96884.80
2018-02-22T19:55:05.386Z,96882.21
2018-02-22T19:57:33.916Z,96886.18
2018-02-22T20:00:03.757Z,96884.56
2018-02-22T20:02:32.241Z,96887.12
2018-02-22T20:05:01.751Z,96893.77
2018-02-22T20:07:30.357Z,96891.94
2018-02-22T20:10:01.692Z,96890.72
2018-02-22T20:12:30.310Z,96893.83
2018-02-22T20:15:00.666Z,96891.59
2018-02-22T20:17:32.468Z,96893.48
2018-02-22T20:20:03.625Z,96894.34
2018-02-22T20:22:32.277Z,96899.97
2018-02-22T20:25:02.897Z,96902.23
2018-02-22T20:27:33.012Z,96896.83
2018-02-22T20:30:02.912Z,96894.34
2018-02-22T20:32:31.436Z,96900.55
2018-02-22T20:34:59.813Z,96893.04
2018-02-22T20:37:28.265Z,96900.80
2018-02-22T20:39:58.517Z,96898.20
2018-02-22T20:42:29.249Z,96893.53
2018-02-22T20:44:59.540Z,96892.61
2018-02-22T20:47:28.937Z,96899.55
2018-02-22T20:49:58.136Z,96897.58
2018-02-22T20:55:44.671Z,96898.01
2018-02-22T20:58:15.614Z,96897.12
2018-02-22T21:00:44.074Z,96895.36
2018-02-22T21:03:13.130Z,96897.84
2018-02-22T21:05:41.576Z,96896.14
2018-02-22T21:08:09.874Z,96895.12
2018-02-22T21:10:38.272Z,96897.68
2018-02-22T21:13:06.628Z,96891.70
2018-02-22T21:15:35.062Z,96883.72
2018-02-22T21:18:05.269Z,96890.22
2018-02-22T21:20:33.629Z,96890.86
2018-02-22T21:23:01.932Z,96883.63
2018-02-22T21:25:30.271Z,96890.21
2018-02-22T21:27:58.803Z,96890.13
2018-02-22T21:30:27.284Z,96885.39
2018-02-22T21:32:55.645Z,96883.34
2018-02-22T21:35:24.003Z,96885.83
2018-02-22T21:37:52.513Z,96882.91
2018-02-22T21:40:22.626Z,96888.17
2018-02-22T21:42:51.001Z,96881.53
2018-02-22T21:45:21.031Z,96884.02
2018-02-22T21:47:49.420Z,96885.83
2018-02-22T21:50:19.587Z,96898.03
2018-02-22T21:52:49.588Z,96881.66
2018-02-22T21:55:18.115Z,96882.70
2018-02-22T21:57:46.555Z,96886.52
2018-02-22T22:00:15.009Z,96884.17
2018-02-22T22:02:43.457Z,96883.58
2018-02-22T22:05:11.989Z,96900.70
2018-02-22T22:07:40.436Z,96883.72
2018-02-22T22:10:08.826Z,96886.72
2018-02-22T22:12:37.279Z,96886.37
2018-02-22T22:15:06.604Z,96888.50
2018-02-22T22:17:35.086Z,96893.91
2018-02-22T22:20:05.041Z,96896.61
2018-02-22T22:22:36.988Z,96897.85
2018-02-22T22:25:05.381Z,96895.02
2018-02-22T22:27:33.778Z,96889.30
2018-02-22T22:30:02.192Z,96884.72
2018-02-22T22:32:31.344Z,96882.23
2018-02-22T22:35:00.728Z,96886.45
2018-02-22T22:37:30.154Z,96888.16
2018-02-22T22:39:58.943Z,96882.34
2018-02-22T22:42:27.276Z,96882.43
2018-02-22T22:44:55.752Z,96879.23
2018-02-22T22:47:24.803Z,96875.11
2018-02-22T22:49:53.917Z,96877.19
2018-02-22T22:52:22.267Z,96879.43
2018-02-22T22:54:50.597Z,96876.16
2018-02-22T22:57:19.105Z,96870.84
2018-02-22T22:59:47.504Z,96865.54
2018-02-22T23:02:15.899Z,96863.06
2018-02-22T23:04:46.001Z,96870.00
2018-02-22T23:07:14.330Z,96875.56
2018-02-22T23:09:42.683Z,96872.73
2018-02-22T23:12:11.290Z,96871.97
2018-02-22T23:14:39.618Z,96876.94
2018-02-22T23:17:07.922Z,96870.30
2018-02-22T23:19:36.272Z,96870.02
2018-02-22T23:22:04.635Z,96864.73
2018-02-22T23:24:32.999Z,96867.67
2018-02-22T23:27:02.088Z,96866.05
2018-02-22T23:29:31.298Z,96864.32
2018-02-22T23:31:59.687Z,96865.86
2018-02-22T23:34:30.623Z,96860.05
2018-02-22T23:36:58.965Z,96859.63
2018-02-22T23:39:27.326Z,96861.75
2018-02-22T23:42:01.385Z,96854.89
2018-02-22T23:44:33.654Z,96853.55
2018-02-22T23:47:02.144Z,96852.11
2018-02-22T23:49:30.525Z,96850.36
2018-02-22T23:52:00.743Z,96855.33
2018-02-22T23:54:31.378Z,96852.77
2018-02-22T23:56:59.702Z,96853.92
2018-02-22T23:59:28.011Z,96852.09
